Time;durP1;ratioP1;P1;durP2;ratioP2;P2;SDS_P1;SDS_P2;PMS_P1;PMS_P2;Temp;Humidity;BMP_temperature;BMP_pressure;BME280_temperature;BME280_humidity;BME280_pressure;Samples;Min_cycle;Max_cycle;Signal;HPM_P1;HPM_P2
2022/03/13 00:00:57;;;;;;;17.58;4.97;;;;;;;-5.70;67.91;98096.19;5043026;28;20053;-56
2022/03/13 00:03:26;;;;;;;13.77;4.20;;;;;;;-6.34;68.39;98027.28;5043920;28;20045;-56
2022/03/13 00:05:53;;;;;;;17.23;4.93;;;;;;;-5.80;68.55;98101.38;5044207;28;20060;-57
2022/03/13 00:08:25;;;;;;;14.45;5.72;;;;;;;-5.72;68.53;98106.38;5044131;28;20377;-57
2022/03/13 00:11:00;;;;;;;27.67;7.43;;;;;;;-5.76;68.53;98105.25;5042580;28;20096;-58
2022/03/13 00:13:30;;;;;;;22.65;6.82;;;;;;;-5.66;68.41;98100.03;5044405;28;20128;-57
2022/03/13 00:16:01;;;;;;;24.13;9.57;;;;;;;-5.65;68.12;98101.66;5044960;28;20146;-57
2022/03/13 00:18:27;;;;;;;57.25;17.30;;;;;;;-5.54;68.71;98095.41;5043767;28;20057;-57
2022/03/13 00:20:55;;;;;;;94.50;28.88;;;;;;;-5.56;68.22;98093.97;5042799;28;20068;-58
2022/03/13 00:23:22;;;;;;;48.25;18.42;;;;;;;-5.60;69.34;98092.84;5044018;28;20049;-56
2022/03/13 00:25:49;;;;;;;61.40;18.83;;;;;;;-5.74;69.57;98097.72;5044369;28;20049;-56
2022/03/13 00:28:15;;;;;;;57.55;20.27;;;;;;;-5.78;69.50;98069.59;5043852;28;20052;-56
2022/03/13 00:30:42;;;;;;;28.85;10.75;;;;;;;-5.77;69.25;98086.59;5044273;28;20061;-57
2022/03/13 00:33:09;;;;;;;16.67;6.30;;;;;;;-5.86;68.91;98093.47;5041713;28;20049;-57
2022/03/13 00:35:38;;;;;;;15.38;5.75;;;;;;;-5.70;69.38;98095.34;5044316;28;20064;-57
2022/03/13 00:38:06;;;;;;;15.85;5.90;;;;;;;-5.68;68.87;98101.31;5043807;28;20053;-57
2022/03/13 00:40:34;;;;;;;13.30;5.80;;;;;;;-6.22;68.90;98024.53;5044267;28;20151;-58
2022/03/13 00:43:01;;;;;;;15.40;5.45;;;;;;;-5.89;68.36;98073.19;5044044;28;20076;-56
2022/03/13 00:45:29;;;;;;;16.90;5.38;;;;;;;-6.41;68.70;98015.00;5042220;28;20074;-58
2022/03/13 00:47:57;;;;;;;22.88;7.90;;;;;;;-6.26;68.66;98012.63;5043450;28;20150;-56
2022/03/13 00:50:24;;;;;;;30.17;8.88;;;;;;;-5.83;69.29;98088.41;5043659;28;20052;-57
2022/03/13 00:52:51;;;;;;;19.60;7.50;;;;;;;-5.87;68.94;98092.66;5043847;28;20045;-57
2022/03/13 00:55:17;;;;;;;23.02;8.65;;;;;;;-5.97;68.78;98091.63;5044239;28;20490;-56
2022/03/13 00:57:44;;;;;;;20.48;6.15;;;;;;;-6.20;70.02;98107.88;5043851;28;20053;-56
2022/03/13 01:00:13;;;;;;;16.98;8.32;;;;;;;-6.73;70.68;98021.84;5042398;28;20067;-55
2022/03/13 01:02:40;;;;;;;24.38;7.10;;;;;;;-6.26;70.53;98085.41;5043531;28;20052;-56
2022/03/13 01:05:09;;;;;;;21.70;7.93;;;;;;;-6.09;69.64;98088.97;5043544;28;20097;-55
2022/03/13 01:07:38;;;;;;;19.90;7.05;;;;;;;-6.08;69.72;98074.41;5041859;28;20508;-55
2022/03/13 01:10:06;;;;;;;14.50;5.32;;;;;;;-6.50;69.03;98021.81;5043386;28;20358;-56
2022/03/13 01:12:33;;;;;;;11.90;4.05;;;;;;;-5.98;69.33;98080.03;5043527;28;20067;-57
2022/03/13 01:15:00;;;;;;;13.25;5.15;;;;;;;-6.78;69.62;97994.84;5043835;28;20405;-56
2022/03/13 01:17:27;;;;;;;14.68;4.32;;;;;;;-6.45;69.36;98043.50;5043129;28;20061;-57
2022/03/13 01:19:54;;;;;;;12.25;4.43;;;;;;;-6.28;69.81;98079.41;5043526;28;20595;-57
2022/03/13 01:22:20;;;;;;;8.32;3.60;;;;;;;-6.95;69.04;97961.59;5043160;28;20049;-57
2022/03/13 01:24:49;;;;;;;12.55;4.03;;;;;;;-6.25;69.45;98070.84;5043095;28;20055;-56
2022/03/13 01:27:16;;;;;;;24.95;6.53;;;;;;;-6.66;69.27;98006.41;5043146;28;20060;-57
2022/03/13 01:29:44;;;;;;;8.90;3.85;;;;;;;-6.17;69.71;98065.09;5041796;28;20435;-55
2022/03/13 01:32:12;;;;;;;13.73;4.93;;;;;;;-7.09;68.80;97909.09;5042035;28;20063;-55
2022/03/13 01:34:44;;;;;;;12.35;5.22;;;;;;;-6.13;68.80;98066.22;5042111;28;20501;-56
2022/03/13 01:37:19;;;;;;;15.43;5.13;;;;;;;-6.34;68.68;98042.63;5043051;28;20427;-56
2022/03/13 01:39:48;;;;;;;14.98;6.45;;;;;;;-6.82;68.93;97947.88;5042974;28;20110;-56
2022/03/13 01:42:15;;;;;;;13.35;4.70;;;;;;;-6.62;68.72;97956.38;5043248;28;20053;-57
2022/03/13 01:44:42;;;;;;;29.45;8.27;;;;;;;-6.66;69.28;97980.28;5046191;28;20495;-55
2022/03/13 01:47:09;;;;;;;23.30;7.45;;;;;;;-6.32;69.55;98045.91;5045620;28;20060;-55
2022/03/13 01:49:36;;;;;;;20.50;6.55;;;;;;;-6.15;69.25;98073.75;5045898;28;20088;-55
2022/03/13 01:52:03;;;;;;;50.55;15.60;;;;;;;-6.32;69.94;98056.69;5045706;28;20049;-57
2022/03/13 01:54:33;;;;;;;21.17;7.50;;;;;;;-6.36;70.89;98061.75;5027198;28;20057;-59
2022/03/13 01:57:01;;;;;;;17.33;6.53;;;;;;;-6.65;71.34;98029.56;5025652;28;20053;-56
2022/03/13 01:59:32;;;;;;;24.20;9.45;;;;;;;-6.53;70.90;98035.78;5027561;28;20161;-56
2022/03/13 02:01:58;;;;;;;23.58;9.55;;;;;;;-6.28;70.24;98052.47;5025605;28;20054;-57
2022/03/13 02:04:28;;;;;;;19.70;6.18;;;;;;;-6.30;70.44;98059.97;5025374;28;20282;-57
2022/03/13 02:06:58;;;;;;;15.05;5.95;;;;;;;-6.37;71.44;98062.00;5026708;28;20050;-56
2022/03/13 02:09:27;;;;;;;18.48;6.50;;;;;;;-6.93;71.89;98005.28;5026542;28;20064;-58
2022/03/13 02:11:54;;;;;;;42.15;13.85;;;;;;;-6.27;70.84;98062.19;5026575;28;20246;-57
2022/03/13 02:14:23;;;;;;;53.78;15.20;;;;;;;-6.28;71.08;98063.25;5026628;28;20053;-55
2022/03/13 02:16:52;;;;;;;40.33;12.50;;;;;;;-6.33;71.48;98061.25;5025072;28;20079;-57
2022/03/13 02:19:19;;;;;;;38.42;11.95;;;;;;;-6.73;70.25;97979.59;5026916;28;20087;-56
2022/03/13 02:21:50;;;;;;;34.40;11.73;;;;;;;-6.29;69.59;98050.81;5026371;28;20384;-55
2022/03/13 02:24:22;;;;;;;13.73;5.95;;;;;;;-6.53;70.78;98070.81;5024912;28;20084;-58
2022/03/13 02:27:04;;;;;;;16.98;5.85;;;;;;;-6.53;71.20;98060.03;5026305;28;20059;-56
2022/03/13 02:29:31;;;;;;;22.60;7.10;;;;;;;-6.42;71.01;98056.47;5026873;28;20088;-56
2022/03/13 02:32:00;;;;;;;22.73;8.40;;;;;;;-6.33;70.12;98052.34;5026388;28;20132;-55
2022/03/13 02:34:28;;;;;;;16.88;7.18;;;;;;;-6.24;69.78;98053.59;5026244;28;20067;-57
2022/03/13 02:37:02;;;;;;;21.45;7.72;;;;;;;-6.71;69.33;97990.97;5026105;28;20508;-55
2022/03/13 02:39:35;;;;;;;18.42;6.28;;;;;;;-6.87;69.29;97950.47;5026765;28;20057;-56
2022/03/13 02:42:04;;;;;;;19.52;6.75;;;;;;;-6.39;69.71;98045.22;5026283;28;20057;-56
2022/03/13 02:44:31;;;;;;;13.05;4.30;;;;;;;-6.90;69.91;97988.66;5026416;28;20167;-55
2022/03/13 02:47:04;;;;;;;9.63;4.50;;;;;;;-6.54;69.68;98050.28;5026173;28;20543;-54
2022/03/13 02:49:32;;;;;;;11.90;4.43;;;;;;;-6.66;70.29;98052.19;5024878;28;20057;-55
2022/03/13 02:52:03;;;;;;;16.17;5.30;;;;;;;-6.81;70.74;98046.50;5025788;28;20538;-56
2022/03/13 02:54:29;;;;;;;17.48;5.82;;;;;;;-7.12;70.61;98006.47;5045211;28;20067;-55
2022/03/13 02:56:58;;;;;;;13.18;4.43;;;;;;;-6.94;71.24;98019.81;5045885;28;20516;-56
2022/03/13 02:59:25;;;;;;;15.07;5.10;;;;;;;-6.82;71.32;98044.84;5045401;28;20487;-55
2022/03/13 03:01:52;;;;;;;13.35;5.22;;;;;;;-6.87;71.48;98044.72;5045817;28;20052;-55
2022/03/13 03:04:24;;;;;;;15.57;5.55;;;;;;;-6.86;71.23;98038.28;5045278;28;20060;-56
2022/03/13 03:06:54;;;;;;;17.38;5.88;;;;;;;-7.04;71.88;98033.03;5045495;28;20056;-58
2022/03/13 03:09:21;;;;;;;18.02;6.50;;;;;;;-6.66;71.42;98041.41;5045691;28;20060;-57
2022/03/13 03:11:48;;;;;;;21.13;7.10;;;;;;;-6.71;69.92;98027.84;5045545;28;20070;-57
2022/03/13 03:14:15;;;;;;;14.02;6.32;;;;;;;-6.62;70.28;98056.03;5045310;28;20055;-56
2022/03/13 03:16:43;;;;;;;16.17;6.57;;;;;;;-6.60;70.13;98037.78;5045700;28;20053;-56
2022/03/13 03:19:11;;;;;;;13.57;5.25;;;;;;;-6.56;70.58;98039.75;5045154;28;20060;-57
2022/03/13 03:21:39;;;;;;;12.00;3.92;;;;;;;-6.77;71.25;98034.19;5045116;28;20063;-55
2022/03/13 03:24:14;;;;;;;15.90;5.60;;;;;;;-6.91;71.93;98022.03;5045220;28;20068;-57
2022/03/13 03:26:42;;;;;;;20.98;6.40;;;;;;;-6.92;71.90;98012.28;5044831;28;20045;-56
2022/03/13 03:29:09;;;;;;;24.05;5.95;;;;;;;-6.80;70.63;98005.03;5043587;28;20057;-56
2022/03/13 03:31:40;;;;;;;11.70;5.53;;;;;;;-6.61;71.25;98022.66;5043736;28;20056;-55
2022/03/13 03:34:17;;;;;;;20.52;6.13;;;;;;;-6.57;70.82;98021.13;5045123;28;20056;-55
2022/03/13 03:37:07;;;;;;;16.30;6.07;;;;;;;-6.81;70.88;97973.78;5044072;28;20083;-55
2022/03/13 03:39:33;;;;;;;31.15;7.22;;;;;;;-6.56;71.08;98028.97;5045155;28;20071;-57
2022/03/13 03:42:02;;;;;;;22.95;6.72;;;;;;;-7.00;70.62;97940.00;5044795;28;20044;-58
2022/03/13 03:44:29;;;;;;;31.75;9.63;;;;;;;-6.84;70.09;97939.22;5044451;28;20518;-56
2022/03/13 03:46:56;;;;;;;13.93;5.00;;;;;;;-6.15;69.25;98029.78;5043008;28;20060;-56
2022/03/13 03:49:23;;;;;;;13.48;5.13;;;;;;;-6.11;68.66;98020.97;5044963;28;20057;-55
2022/03/13 03:51:50;;;;;;;16.23;4.72;;;;;;;-6.11;69.03;98020.97;5044678;28;20049;-56
2022/03/13 03:54:17;;;;;;;44.40;12.68;;;;;;;-6.63;69.28;97931.34;5043868;28;20056;-57
2022/03/13 03:56:44;;;;;;;31.38;8.63;;;;;;;-6.96;69.10;97914.22;5045133;28;20060;-57
2022/03/13 03:59:11;;;;;;;24.20;7.53;;;;;;;-6.15;69.58;98019.84;5044930;28;20080;-54
2022/03/13 04:01:40;;;;;;;19.10;6.38;;;;;;;-6.14;68.70;98008.00;5044802;28;20052;-56
2022/03/13 04:04:14;;;;;;;21.42;5.18;;;;;;;-7.02;69.30;97885.56;5044851;28;20067;-55
2022/03/13 04:06:41;;;;;;;14.35;4.97;;;;;;;-6.07;68.85;98018.63;5044525;28;20059;-57
2022/03/13 04:09:09;;;;;;;12.63;3.72;;;;;;;-6.10;68.26;98022.59;5042973;28;20053;-56
2022/03/13 04:11:36;;;;;;;11.52;4.45;;;;;;;-6.26;68.95;98023.41;5044842;28;20052;-57
2022/03/13 04:14:04;;;;;;;17.90;4.15;;;;;;;-6.30;70.02;98011.44;5044265;28;20060;-58
2022/03/13 04:16:30;;;;;;;15.88;5.00;;;;;;;-6.71;69.86;97963.19;5044441;28;20086;-57
2022/03/13 04:18:57;;;;;;;13.38;3.72;;;;;;;-6.52;70.88;98007.78;5043898;28;20053;-58
2022/03/13 04:21:24;;;;;;;10.85;3.42;;;;;;;-6.55;71.21;97998.31;5044110;28;20069;-56
2022/03/13 04:23:51;;;;;;;9.98;3.08;;;;;;;-6.51;71.27;98004.00;5044089;28;20112;-56
2022/03/13 04:26:20;;;;;;;10.98;3.65;;;;;;;-6.54;71.29;97983.75;5043881;28;20052;-57
2022/03/13 04:28:49;;;;;;;13.50;4.22;;;;;;;-6.48;71.52;97998.97;5044248;28;20055;-56
2022/03/13 04:31:18;;;;;;;15.27;4.93;;;;;;;-6.38;71.52;98009.13;5044183;28;20048;-55
2022/03/13 04:33:45;;;;;;;13.50;5.95;;;;;;;-6.21;71.29;98003.81;5042793;28;20057;-55
2022/03/13 04:36:14;;;;;;;17.65;6.00;;;;;;;-6.08;70.84;97998.94;5043248;28;20048;-56
2022/03/13 04:38:41;;;;;;;17.02;5.85;;;;;;;-6.01;71.03;98005.00;5043193;28;20095;-57
2022/03/13 04:41:09;;;;;;;23.20;8.55;;;;;;;-5.97;71.08;97995.34;5042269;28;20052;-55
2022/03/13 04:43:37;;;;;;;21.50;9.00;;;;;;;-6.00;70.12;97968.88;5043761;28;20059;-57
2022/03/13 04:46:04;;;;;;;27.23;8.52;;;;;;;-5.73;69.95;98002.25;5043385;28;20052;-58
2022/03/13 04:48:32;;;;;;;18.95;7.38;;;;;;;-6.24;70.08;97943.09;5042650;28;20057;-57
2022/03/13 04:50:59;;;;;;;22.13;8.10;;;;;;;-5.79;70.10;98005.09;5044046;28;20080;-58
2022/03/13 04:53:27;;;;;;;38.95;10.70;;;;;;;-5.67;69.52;98012.06;5043624;28;20048;-57
2022/03/13 04:55:57;;;;;;;47.30;11.00;;;;;;;-5.90;69.01;97954.75;5043652;28;20055;-56
2022/03/13 04:58:24;;;;;;;33.10;10.57;;;;;;;-5.32;67.71;98009.13;5042056;28;20500;-56
2022/03/13 05:00:51;;;;;;;21.98;7.13;;;;;;;-5.44;67.50;97994.91;5042033;28;20146;-56
2022/03/13 05:03:18;;;;;;;16.50;6.38;;;;;;;-5.28;67.53;98019.19;5043727;28;20465;-57
2022/03/13 05:05:45;;;;;;;18.08;6.72;;;;;;;-5.24;68.19;98006.84;5043812;28;20056;-57
2022/03/13 05:08:15;;;;;;;24.25;7.55;;;;;;;-5.08;67.06;98011.41;5043589;28;20151;-55
2022/03/13 05:10:44;;;;;;;26.98;7.63;;;;;;;-5.03;67.00;98016.88;5042253;28;20049;-55
2022/03/13 05:13:13;;;;;;;21.58;6.90;;;;;;;-5.54;66.40;97929.97;5043548;28;20144;-57
2022/03/13 05:15:40;;;;;;;26.48;7.22;;;;;;;-5.09;66.56;98007.06;5042014;28;20044;-56
2022/03/13 05:18:07;;;;;;;22.25;8.60;;;;;;;-5.00;66.59;98013.69;5045733;28;20060;-55
2022/03/13 05:20:35;;;;;;;20.83;7.68;;;;;;;-5.07;67.05;98012.22;5048616;28;20060;-56
2022/03/13 05:23:07;;;;;;;23.15;8.48;;;;;;;-4.91;66.61;98016.78;5050033;28;20143;-56
2022/03/13 05:25:39;;;;;;;14.73;4.90;;;;;;;-4.79;65.65;98015.59;5048823;28;20060;-59
2022/03/13 05:28:09;;;;;;;15.55;5.63;;;;;;;-4.78;66.40;98019.13;5049636;28;20056;-56
2022/03/13 05:30:37;;;;;;;19.73;7.65;;;;;;;-5.17;65.95;97958.88;5048717;28;20045;-57
2022/03/13 05:33:05;;;;;;;13.23;6.38;;;;;;;-4.67;65.83;98013.63;5049503;28;20049;-57
2022/03/13 05:35:32;;;;;;;29.10;7.55;;;;;;;-4.34;64.89;98018.09;5048215;28;20421;-55
2022/03/13 05:37:59;;;;;;;16.75;6.53;;;;;;;-4.66;64.29;97928.78;5049685;28;20068;-57
2022/03/13 05:40:27;;;;;;;21.50;7.00;;;;;;;-4.46;63.77;97928.19;5047871;28;20075;-56
2022/03/13 05:42:57;;;;;;;20.67;6.05;;;;;;;-3.78;62.30;98000.59;5049375;28;20053;-55
2022/03/13 05:45:25;;;;;;;15.82;7.22;;;;;;;-3.81;61.70;97968.63;5049678;28;20067;-57
2022/03/13 05:47:55;;;;;;;23.25;7.82;;;;;;;-3.11;60.82;98013.38;5049782;28;20060;-56
2022/03/13 05:50:24;;;;;;;20.88;6.40;;;;;;;-3.22;59.42;98002.72;5049632;28;20057;-58
2022/03/13 05:52:53;;;;;;;12.27;6.20;;;;;;;-3.32;59.88;97951.19;5048170;28;20060;-55
2022/03/13 05:55:20;;;;;;;12.13;5.22;;;;;;;-2.86;60.10;98015.44;5050284;28;20136;-58
2022/03/13 05:57:47;;;;;;;18.55;6.82;;;;;;;-2.41;59.26;98006.75;5049903;28;20056;-55
2022/03/13 06:00:15;;;;;;;16.08;6.72;;;;;;;-2.26;58.43;98004.91;5049278;28;20174;-56
2022/03/13 06:02:46;;;;;;;14.10;6.40;;;;;;;-2.38;57.41;97979.91;5047527;28;20059;-57
2022/03/13 06:05:15;;;;;;;23.33;9.25;;;;;;;-1.84;57.24;98019.19;5048154;28;20210;-56
2022/03/13 06:07:43;;;;;;;25.52;11.25;;;;;;;-1.72;55.48;98011.63;5047563;28;20079;-54
2022/03/13 06:10:16;;;;;;;31.42;11.45;;;;;;;-1.56;54.62;98016.00;5049739;28;20505;-57
2022/03/13 06:12:43;;;;;;;22.33;9.80;;;;;;;-1.24;54.76;98018.47;5049315;28;20059;-57
2022/03/13 06:15:12;;;;;;;45.53;20.25;;;;;;;-1.16;54.36;98003.53;5049087;28;20056;-57
2022/03/13 06:17:40;;;;;;;33.80;16.52;;;;;;;-1.08;53.42;98000.25;5048012;28;20057;-57
2022/03/13 06:20:10;;;;;;;42.47;20.10;;;;;;;-0.74;53.36;98017.63;5049606;28;20048;-57
2022/03/13 06:22:42;;;;;;;35.58;16.48;;;;;;;-0.73;52.89;97986.63;5049230;28;20069;-58
2022/03/13 06:25:11;;;;;;;27.58;13.05;;;;;;;-0.71;51.36;97963.50;5049514;28;20045;-60
2022/03/13 06:27:39;;;;;;;26.30;11.30;;;;;;;-0.32;51.33;97983.50;5049071;28;20053;-57
2022/03/13 06:30:13;;;;;;;33.08;11.77;;;;;;;-0.01;50.05;97995.09;5046366;28;20060;-57
2022/03/13 06:32:45;;;;;;;32.03;14.18;;;;;;;0.16;49.05;98011.09;5044751;28;20053;-58
2022/03/13 06:35:14;;;;;;;41.17;16.20;;;;;;;0.28;49.07;98009.66;5046611;28;20063;-59
2022/03/13 06:37:41;;;;;;;50.80;19.13;;;;;;;0.14;49.83;97937.84;5046340;28;20451;-56
2022/03/13 06:40:16;;;;;;;36.07;15.10;;;;;;;0.46;49.15;97967.31;5046034;28;20065;-59
2022/03/13 06:42:42;;;;;;;48.47;19.15;;;;;;;0.64;48.66;97997.44;5046088;28;20067;-57
2022/03/13 06:45:10;;;;;;;39.17;17.02;;;;;;;0.77;47.71;97996.81;5045665;28;20055;-57
2022/03/13 06:47:46;;;;;;;48.90;19.52;;;;;;;0.73;48.85;97992.19;5044150;28;20164;-56
2022/03/13 06:50:15;;;;;;;114.68;44.47;;;;;;;0.78;48.31;97987.53;5046243;28;20148;-56
2022/03/13 06:52:44;;;;;;;82.63;32.55;;;;;;;0.60;48.35;97996.34;5045775;28;20053;-55
2022/03/13 06:55:13;;;;;;;51.72;23.98;;;;;;;0.02;48.41;97907.38;5044805;28;20060;-56
2022/03/13 06:57:41;;;;;;;48.10;21.38;;;;;;;0.88;47.96;98003.81;5046112;28;20053;-59
2022/03/13 07:00:09;;;;;;;53.42;21.90;;;;;;;1.16;47.76;97969.44;5044189;28;20076;-56
2022/03/13 07:02:36;;;;;;;66.72;27.25;;;;;;;1.67;48.08;97994.31;5045514;28;20052;-58
2022/03/13 07:05:03;;;;;;;41.88;19.90;;;;;;;2.03;45.69;97976.38;5045100;28;20052;-56
2022/03/13 07:07:30;;;;;;;44.45;19.27;;;;;;;2.32;45.85;97971.63;5044546;28;20052;-58
2022/03/13 07:09:57;;;;;;;40.28;18.20;;;;;;;2.59;44.51;97969.06;5045260;28;20061;-59
2022/03/13 07:12:25;;;;;;;43.28;19.17;;;;;;;2.85;44.47;97973.00;5044644;28;20061;-56
2022/03/13 07:14:56;;;;;;;55.85;21.85;;;;;;;2.71;44.26;97939.31;5045323;28;20055;-59
2022/03/13 07:17:24;;;;;;;50.08;22.10;;;;;;;2.96;44.25;97979.94;5043373;28;20055;-57
2022/03/13 07:19:51;;;;;;;34.60;16.60;;;;;;;2.97;44.77;97973.38;5044131;28;20068;-58
2022/03/13 07:22:18;;;;;;;23.00;8.85;;;;;;;1.83;47.47;97976.66;5044635;28;20532;-55
2022/03/13 07:24:46;;;;;;;17.58;7.50;;;;;;;1.04;49.06;97955.41;5044808;28;20051;-57
2022/03/13 07:27:16;;;;;;;18.33;7.55;;;;;;;1.68;48.61;97990.47;5044183;28;20055;-58
2022/03/13 07:29:42;;;;;;;18.45;7.90;;;;;;;0.88;49.56;97921.19;5044829;28;20051;-59
2022/03/13 07:32:09;;;;;;;15.90;7.47;;;;;;;1.43;49.70;97967.81;5044255;28;20059;-55
2022/03/13 07:34:37;;;;;;;13.23;6.93;;;;;;;1.50;49.48;97981.91;5044559;28;20075;-56
2022/03/13 07:37:04;;;;;;;13.68;5.82;;;;;;;1.37;49.90;97974.44;5044508;28;20076;-59
2022/03/13 07:39:31;;;;;;;51.22;17.58;;;;;;;1.30;50.84;97984.88;5044161;28;20140;-59
2022/03/13 07:41:58;;;;;;;30.60;12.60;;;;;;;1.15;49.57;97949.56;5043621;28;20063;-57
2022/03/13 07:44:25;;;;;;;13.95;5.68;;;;;;;0.81;51.00;97967.84;5043872;28;20049;-56
2022/03/13 07:46:51;;;;;;;12.95;6.15;;;;;;;0.41;52.41;97970.06;5043946;28;20056;-60
2022/03/13 07:49:18;;;;;;;12.82;5.78;;;;;;;0.41;52.52;97927.28;5042225;28;20961;-57
2022/03/13 07:51:46;;;;;;;14.75;6.00;;;;;;;0.63;52.21;97963.13;5043743;28;20519;-58
2022/03/13 07:54:15;;;;;;;22.52;7.65;;;;;;;0.51;52.31;97972.72;5043922;28;20052;-56
2022/03/13 07:56:41;;;;;;;15.30;6.07;;;;;;;0.80;51.75;97971.69;5042680;28;20049;-58
2022/03/13 07:59:08;;;;;;;27.20;8.80;;;;;;;0.91;50.68;97975.13;5042117;28;20053;-58
2022/03/13 08:01:35;;;;;;;23.17;7.72;;;;;;;0.67;50.91;97976.97;5042186;28;20538;-56
2022/03/13 08:04:04;;;;;;;16.00;5.82;;;;;;;1.00;51.01;97952.41;5042087;28;20059;-56
2022/03/13 08:06:39;;;;;;;13.77;5.28;;;;;;;1.55;49.98;97927.28;5043718;28;20049;-58
2022/03/13 08:09:07;;;;;;;13.27;5.28;;;;;;;2.21;48.63;97956.50;5043448;28;20062;-57
2022/03/13 08:11:34;;;;;;;78.38;26.42;;;;;;;2.68;48.13;97961.81;5044123;28;20056;-58
2022/03/13 08:14:03;;;;;;;35.22;14.18;;;;;;;3.14;47.62;97957.22;5043632;28;20080;-58
2022/03/13 08:16:30;;;;;;;16.48;7.20;;;;;;;3.49;46.92;97948.34;5043979;28;20053;-57
2022/03/13 08:18:57;;;;;;;12.68;6.40;;;;;;;3.86;45.82;97950.91;5043771;28;20373;-58
2022/03/13 08:21:24;;;;;;;11.43;4.55;;;;;;;3.90;43.84;97913.56;5043416;28;20053;-58
2022/03/13 08:23:51;;;;;;;13.27;5.28;;;;;;;4.28;42.25;97945.06;5041957;28;20061;-57
2022/03/13 08:26:18;;;;;;;10.25;4.40;;;;;;;4.50;41.68;97939.59;5043798;28;20079;-58
2022/03/13 08:28:45;;;;;;;10.63;3.97;;;;;;;4.24;42.16;97870.03;5043336;28;20060;-57
2022/03/13 08:31:13;;;;;;;10.15;4.38;;;;;;;4.91;40.65;97927.69;5043671;28;20060;-58
2022/03/13 08:33:43;;;;;;;15.38;6.18;;;;;;;5.22;39.96;97939.50;5042656;28;20454;-57
2022/03/13 08:36:10;;;;;;;25.70;7.35;;;;;;;5.47;39.95;97941.63;5043255;28;20044;-58
2022/03/13 08:38:36;;;;;;;9.55;4.65;;;;;;;5.33;39.25;97870.25;5042756;28;20049;-58
2022/03/13 08:41:03;;;;;;;8.68;4.65;;;;;;;2.86;38.50;97469.34;5043437;28;20499;-57
2022/03/13 08:43:30;;;;;;;10.90;4.90;;;;;;;5.95;38.48;97934.22;5042808;28;20053;-58
2022/03/13 08:45:56;;;;;;;11.10;4.50;;;;;;;6.03;37.36;97927.94;5043310;28;20049;-58
2022/03/13 08:48:23;;;;;;;6.20;3.63;;;;;;;5.62;37.16;97933.75;5043595;28;20060;-56
2022/03/13 08:50:50;;;;;;;8.60;3.53;;;;;;;5.25;37.27;97944.41;5043128;28;20103;-56
2022/03/13 08:53:17;;;;;;;8.35;4.03;;;;;;;5.66;38.21;97929.25;5034581;28;20050;-55
2022/03/13 08:55:43;;;;;;;10.82;4.85;;;;;;;5.28;37.80;97833.91;5021225;28;20059;-57
2022/03/13 08:58:10;;;;;;;10.52;5.45;;;;;;;5.71;37.25;97873.31;5023586;28;20409;-57
2022/03/13 09:00:41;;;;;;;13.32;3.60;;;;;;;6.15;36.13;97926.19;5022313;28;20049;-57
2022/03/13 09:03:08;;;;;;;13.73;6.68;;;;;;;6.37;35.68;97928.00;5054409;28;20134;-57
2022/03/13 09:05:35;;;;;;;7.07;3.83;;;;;;;6.05;36.19;97876.97;5054047;28;20160;-56
2022/03/13 09:08:02;;;;;;;9.05;3.28;;;;;;;6.10;36.21;97911.81;5054167;28;20065;-57
2022/03/13 09:10:29;;;;;;;12.25;4.03;;;;;;;6.56;33.93;97925.75;5023080;28;20147;-57
2022/03/13 09:12:56;;;;;;;7.80;3.67;;;;;;;6.50;34.54;97899.53;5022565;28;20515;-56
2022/03/13 09:15:23;;;;;;;7.97;3.33;;;;;;;6.89;34.54;97918.63;5022811;28;20049;-57
2022/03/13 09:17:53;;;;;;;8.55;3.35;;;;;;;7.17;33.40;97911.66;5054155;28;20064;-57
2022/03/13 09:20:23;;;;;;;7.85;3.83;;;;;;;7.19;33.12;97912.13;5054126;28;20053;-58
2022/03/13 09:22:50;;;;;;;11.50;6.28;;;;;;;7.53;33.61;97906.53;5022823;28;20051;-58
2022/03/13 09:25:20;;;;;;;6.88;3.22;;;;;;;6.92;31.03;97829.88;5023165;28;20059;-57
2022/03/13 09:27:48;;;;;;;11.05;4.97;;;;;;;7.67;32.11;97896.09;5001104;28;20072;-59
2022/03/13 09:30:15;;;;;;;9.85;4.07;;;;;;;7.69;29.41;97910.38;5022699;28;20551;-58
2022/03/13 09:32:42;;;;;;;5.05;2.55;;;;;;;7.62;29.39;97892.69;5022833;28;20433;-57
2022/03/13 09:35:11;;;;;;;9.13;4.05;;;;;;;7.36;29.22;97901.09;5022727;28;20057;-56
2022/03/13 09:37:39;;;;;;;6.88;3.40;;;;;;;7.25;29.32;97899.81;5020866;28;20081;-58
2022/03/13 09:40:17;;;;;;;6.35;3.05;;;;;;;7.39;29.17;97899.59;5022571;28;20057;-56
2022/03/13 09:42:45;;;;;;;9.10;4.15;;;;;;;7.35;29.14;97904.94;5021477;28;20579;-57
2022/03/13 09:45:12;;;;;;;6.20;2.88;;;;;;;7.23;28.94;97871.78;5022591;28;20055;-57
2022/03/13 09:47:40;;;;;;;6.60;3.60;;;;;;;7.10;29.23;97896.75;5022237;28;20053;-57
2022/03/13 09:50:10;;;;;;;8.15;3.85;;;;;;;7.14;29.27;97898.53;5054590;28;20398;-58
2022/03/13 09:52:40;;;;;;;7.40;3.80;;;;;;;7.14;29.33;97881.19;5023332;28;20064;-59
2022/03/13 09:55:09;;;;;;;7.78;3.55;;;;;;;7.58;29.85;97870.53;5040983;28;20045;-61
2022/03/13 09:57:37;;;;;;;21.98;8.48;;;;;;;5.64;29.31;97567.94;5042752;28;20516;-58
2022/03/13 10:00:09;;;;;;;6.45;3.10;;;;;;;8.01;27.89;97889.63;5042413;28;20496;-59
2022/03/13 10:02:39;;;;;;;6.50;3.58;;;;;;;8.20;27.81;97886.41;5042433;28;20059;-58
2022/03/13 10:05:10;;;;;;;7.32;3.17;;;;;;;8.15;28.08;97889.34;5043157;28;20053;-57
2022/03/13 10:07:59;;;;;;;6.43;2.95;;;;;;;8.21;27.81;97888.00;5046533;28;20072;-57
2022/03/13 10:10:30;;;;;;;6.63;3.63;;;;;;;8.46;28.14;97890.63;5046799;28;20060;-57
2022/03/13 10:13:00;;;;;;;6.03;3.05;;;;;;;8.27;28.49;97864.63;5045283;28;20074;-58
2022/03/13 10:15:26;;;;;;;11.75;4.63;;;;;;;8.46;28.36;97887.88;5046205;28;20056;-58
2022/03/13 10:17:53;;;;;;;8.60;3.75;;;;;;;8.35;28.33;97905.97;5046062;28;20063;-59
2022/03/13 10:20:25;;;;;;;8.18;3.33;;;;;;;8.58;27.26;97881.63;5045689;28;20819;-59
2022/03/13 10:23:09;;;;;;;7.65;2.85;;;;;;;8.44;27.34;97881.09;5045879;28;20135;-59
2022/03/13 10:25:39;;;;;;;5.93;3.08;;;;;;;8.08;28.21;97864.25;5046035;28;20550;-58
2022/03/13 10:28:25;;;;;;;6.28;3.13;;;;;;;8.36;27.53;97873.69;5045751;28;20055;-58
2022/03/13 10:31:00;;;;;;;8.95;3.92;;;;;;;8.57;27.63;97874.47;5044549;28;20467;-58
2022/03/13 10:33:47;;;;;;;13.93;6.05;;;;;;;9.16;27.36;97867.59;5046018;28;20051;-60
2022/03/13 10:36:15;;;;;;;7.85;3.80;;;;;;;9.54;27.41;97873.69;5045287;28;20073;-58
2022/03/13 10:38:44;;;;;;;9.63;4.82;;;;;;;9.49;27.17;97862.84;5045489;28;20049;-59
2022/03/13 10:41:13;;;;;;;7.30;3.75;;;;;;;9.46;27.14;97871.81;5045307;28;20094;-59
2022/03/13 10:43:51;;;;;;;9.20;3.85;;;;;;;9.37;26.47;97865.59;5044126;28;20080;-59
2022/03/13 10:46:26;;;;;;;10.67;4.20;;;;;;;9.18;26.67;97870.84;5043962;28;20075;-57
2022/03/13 10:48:54;;;;;;;7.20;3.30;;;;;;;8.81;27.08;97863.53;5045254;28;20129;-59
2022/03/13 10:51:33;;;;;;;10.45;3.50;;;;;;;9.03;26.51;97865.94;5045624;28;20045;-57
2022/03/13 10:54:01;;;;;;;6.60;3.50;;;;;;;7.03;27.31;97715.47;5032549;28;20045;-58
2022/03/13 10:56:28;;;;;;;7.30;3.03;;;;;;;8.70;27.83;97856.81;5025460;28;20111;-58
2022/03/13 10:58:55;;;;;;;7.60;3.10;;;;;;;8.89;28.01;97854.38;5056628;28;20072;-58
2022/03/13 11:01:23;;;;;;;8.85;3.22;;;;;;;9.45;27.02;97850.88;5024645;28;20057;-58
2022/03/13 11:03:52;;;;;;;9.10;3.58;;;;;;;9.72;26.42;97843.84;5024741;28;20050;-59
2022/03/13 11:06:21;;;;;;;6.20;3.13;;;;;;;9.48;26.39;97844.63;5025243;28;20474;-59
2022/03/13 11:08:53;;;;;;;6.28;3.55;;;;;;;9.21;26.44;97851.59;5025166;28;21702;-59
2022/03/13 11:11:27;;;;;;;6.20;3.00;;;;;;;8.43;27.17;97780.88;5025461;28;20399;-59
2022/03/13 11:13:57;;;;;;;8.02;3.60;;;;;;;8.64;27.63;97836.91;5057321;28;20145;-59
2022/03/13 11:16:29;;;;;;;11.45;6.47;;;;;;;8.74;27.69;97772.94;5024987;28;20053;-58
2022/03/13 11:19:03;;;;;;;7.75;3.92;;;;;;;9.70;27.42;97830.38;5025768;28;20057;-58
2022/03/13 11:21:30;;;;;;;;;;;;;;;9.81;26.72;97825.16;5026010;28;20068;-61
2022/03/13 11:23:57;;;;;;;6.88;3.10;;;;;;;9.16;26.69;97754.28;5025506;28;19968;-61
2022/03/13 11:26:29;;;;;;;6.53;3.38;;;;;;;9.72;26.85;97833.56;5025267;28;20148;-58
2022/03/13 11:28:57;;;;;;;5.43;3.20;;;;;;;9.16;26.05;97826.94;5025678;28;20485;-59
2022/03/13 11:31:32;;;;;;;6.22;3.13;;;;;;;8.73;26.56;97800.91;5025203;28;20156;-59
2022/03/13 11:34:18;;;;;;;6.32;3.03;;;;;;;7.62;27.77;97821.84;5025118;28;20049;-60
2022/03/13 11:36:47;;;;;;;8.50;4.25;;;;;;;7.87;28.07;97833.06;5025050;28;20075;-59